Time;durP1;ratioP1;P1;durP2;ratioP2;P2;SDS_P1;SDS_P2;PMS_P1;PMS_P2;Temp;Humidity;BMP_temperature;BMP_pressure;BME280_temperature;BME280_humidity;BME280_pressure;Samples;Min_cycle;Max_cycle;Signal;HPM_P1;HPM_P2
2022/08/16 00:00:21;;;;;;;0.00;0.00;;;;;;;18.94;100.00;97290.78;4926292;29;20075;-81
2022/08/16 00:02:49;;;;;;;0.00;0.00;;;;;;;18.95;100.00;97292.44;4925009;29;20067;-83
2022/08/16 00:05:17;;;;;;;0.00;0.00;;;;;;;18.91;100.00;97293.78;4919657;29;20497;-81
2022/08/16 00:07:44;;;;;;;0.00;0.00;;;;;;;18.88;100.00;97307.44;4925600;29;20066;-81
2022/08/16 00:10:15;;;;;;;0.00;0.00;;;;;;;18.82;100.00;97298.28;4924985;29;20040;-80
2022/08/16 00:12:43;;;;;;;0.00;0.00;;;;;;;18.78;100.00;97296.94;4924031;29;20493;-81
2022/08/16 00:15:15;;;;;;;0.00;0.00;;;;;;;18.82;100.00;97292.94;4926770;29;20498;-79
2022/08/16 00:17:44;;;;;;;0.00;0.00;;;;;;;18.84;100.00;97288.28;4925832;29;20046;-80
2022/08/16 00:20:12;;;;;;;0.00;0.00;;;;;;;18.81;100.00;97301.94;4925716;29;20131;-80
2022/08/16 00:22:42;;;;;;;0.00;0.00;;;;;;;18.76;100.00;97290.94;4924659;29;20047;-82
2022/08/16 00:25:13;;;;;;;0.00;0.00;;;;;;;18.69;100.00;97287.31;4923470;29;20052;-81
2022/08/16 00:27:41;;;;;;;0.00;0.00;;;;;;;18.57;100.00;97288.56;4924201;29;20056;-84
2022/08/16 00:30:11;;;;;;;0.00;0.00;;;;;;;18.43;100.00;97289.22;4939878;28;20036;-80
2022/08/16 00:32:43;;;;;;;0.00;0.00;;;;;;;18.38;100.00;97288.91;4926116;29;20112;-84
2022/08/16 00:35:15;;;;;;;0.00;0.00;;;;;;;18.30;100.00;97302.19;4922201;29;20040;-80
2022/08/16 00:37:44;;;;;;;0.00;0.00;;;;;;;18.24;100.00;97292.19;4922283;29;20066;-80
2022/08/16 00:40:15;;;;;;;0.00;0.00;;;;;;;18.24;100.00;97294.03;4925811;29;20433;-83
2022/08/16 00:42:44;;;;;;;0.00;0.00;;;;;;;18.23;100.00;97279.88;4920655;29;20494;-80
2022/08/16 00:45:32;;;;;;;0.00;0.00;;;;;;;18.14;100.00;97288.88;4917620;29;20040;-81
2022/08/16 00:47:59;;;;;;;0.00;0.00;;;;;;;17.97;100.00;97286.31;4924655;29;20107;-81
2022/08/16 00:50:31;;;;;;;0.00;0.00;;;;;;;17.88;100.00;97288.13;4924328;29;20497;-81
2022/08/16 00:52:59;;;;;;;0.00;0.00;;;;;;;17.92;100.00;97291.28;4924739;29;20462;-82
2022/08/16 00:55:27;;;;;;;0.00;0.00;;;;;;;17.97;100.00;97292.47;4923805;29;20054;-82
2022/08/16 00:57:57;;;;;;;0.00;0.00;;;;;;;18.00;100.00;97284.16;4923564;29;20553;-81
2022/08/16 01:00:27;;;;;;;0.00;0.00;;;;;;;18.01;100.00;97288.47;4923986;29;20044;-83
2022/08/16 01:02:59;;;;;;;0.00;0.00;;;;;;;18.03;100.00;97304.28;4938700;29;20043;-81
2022/08/16 01:05:29;;;;;;;0.00;0.00;;;;;;;18.01;100.00;97304.47;4929232;29;20044;-80
2022/08/16 01:07:57;;;;;;;0.00;0.00;;;;;;;17.90;100.00;97307.41;4925516;29;20295;-81
2022/08/16 01:10:27;;;;;;;0.00;0.00;;;;;;;17.81;100.00;97310.22;4925241;29;20115;-83
2022/08/16 01:12:55;;;;;;;0.00;0.00;;;;;;;17.82;100.00;97304.72;4926119;29;20051;-84
2022/08/16 01:15:24;;;;;;;0.00;0.00;;;;;;;17.86;100.00;97302.56;4929365;29;20044;-83
2022/08/16 01:17:52;;;;;;;0.00;0.00;;;;;;;17.84;100.00;97304.56;4925569;29;20134;-82
2022/08/16 01:20:24;;;;;;;0.00;0.00;;;;;;;17.81;100.00;97303.06;4921869;29;20055;-83
2022/08/16 01:22:59;;;;;;;0.00;0.00;;;;;;;17.85;100.00;97301.75;4938287;29;20043;-80
2022/08/16 01:25:33;;;;;;;0.00;0.00;;;;;;;17.86;100.00;97303.41;4922806;29;20051;-81
2022/08/16 01:28:06;;;;;;;0.00;0.00;;;;;;;17.83;100.00;97303.72;4932934;29;20107;-80
2022/08/16 01:30:37;;;;;;;0.00;0.00;;;;;;;17.74;100.00;97297.50;4915275;29;20049;-83
2022/08/16 01:33:06;;;;;;;0.00;0.00;;;;;;;17.62;100.00;97308.59;4916795;29;20048;-80
2022/08/16 01:35:38;;;;;;;0.00;0.00;;;;;;;17.58;100.00;97307.25;4916963;29;20048;-80
2022/08/16 01:38:18;;;;;;;0.00;0.00;;;;;;;17.60;100.00;97307.94;4915614;29;20044;-82
2022/08/16 01:40:47;;;;;;;0.00;0.00;;;;;;;17.50;100.00;97307.22;4935027;29;20534;-79
2022/08/16 01:43:15;;;;;;;0.00;0.00;;;;;;;17.37;100.00;97304.16;4936977;29;20067;-82
2022/08/16 01:45:43;;;;;;;0.00;0.00;;;;;;;17.38;100.00;97314.66;4937924;29;20040;-80
2022/08/16 01:48:13;;;;;;;0.00;0.00;;;;;;;17.53;100.00;97317.53;4937096;29;20437;-83
2022/08/16 01:50:42;;;;;;;0.00;0.00;;;;;;;17.61;100.00;97314.91;4937110;29;20265;-83
2022/08/16 01:53:10;;;;;;;0.00;0.00;;;;;;;17.63;100.00;97304.97;4943085;29;20064;-83
2022/08/16 01:55:57;;;;;;;0.00;0.00;;;;;;;17.65;100.00;97313.59;4932819;29;20051;-85
2022/08/16 01:58:26;;;;;;;0.00;0.00;;;;;;;17.70;100.00;97314.78;4934290;29;20048;-80
2022/08/16 02:00:53;;;;;;;0.00;0.00;;;;;;;17.74;100.00;97320.63;4929843;29;20042;-84
2022/08/16 02:03:21;;;;;;;0.00;0.00;;;;;;;17.77;100.00;97316.81;4934899;29;20090;-82
2022/08/16 02:05:48;;;;;;;0.00;0.00;;;;;;;17.69;100.00;97320.25;4913924;29;20131;-84
2022/08/16 02:08:17;;;;;;;0.00;0.00;;;;;;;17.68;100.00;97322.09;4934861;29;20138;-81
2022/08/16 02:10:44;;;;;;;0.00;0.00;;;;;;;17.71;100.00;97310.31;4934043;29;20043;-80
2022/08/16 02:13:13;;;;;;;0.00;0.00;;;;;;;17.70;100.00;97308.66;4919015;29;20126;-82
2022/08/16 02:15:41;;;;;;;0.00;0.00;;;;;;;17.65;100.00;97306.47;4918633;29;20036;-79
2022/08/16 02:18:09;;;;;;;0.00;0.00;;;;;;;17.61;100.00;97298.94;4922735;29;20039;-83
2022/08/16 02:20:39;;;;;;;0.00;0.00;;;;;;;17.59;100.00;97304.41;4937831;29;20641;-81
2022/08/16 02:23:08;;;;;;;0.00;0.00;;;;;;;17.53;100.00;97302.41;4935325;29;20048;-82
2022/08/16 02:25:36;;;;;;;0.00;0.00;;;;;;;17.52;100.00;97302.56;4936219;29;20040;-79
2022/08/16 02:28:04;;;;;;;0.00;0.00;;;;;;;17.55;100.00;97299.59;4936689;29;20497;-83
2022/08/16 02:30:34;;;;;;;0.00;0.00;;;;;;;17.55;100.00;97297.75;4952165;29;20043;-82
2022/08/16 02:33:02;;;;;;;0.00;0.00;;;;;;;17.53;100.00;97297.09;4937530;29;20134;-79
2022/08/16 02:35:29;;;;;;;0.00;0.00;;;;;;;17.54;100.00;97297.91;4936002;29;20040;-81
2022/08/16 02:37:57;;;;;;;0.00;0.00;;;;;;;17.61;100.00;97298.94;4924360;29;20048;-81
2022/08/16 02:40:27;;;;;;;0.00;0.00;;;;;;;17.66;100.00;97297.47;4928062;29;20052;-81
2022/08/16 02:42:55;;;;;;;0.00;0.00;;;;;;;17.65;100.00;97300.28;4920208;29;20075;-81
2022/08/16 02:45:25;;;;;;;0.00;0.00;;;;;;;17.53;100.00;97293.59;4940219;29;20054;-84
2022/08/16 02:47:54;;;;;;;0.00;0.00;;;;;;;17.39;100.00;97295.03;4930314;29;20130;-82
2022/08/16 02:50:22;;;;;;;0.00;0.00;;;;;;;17.27;100.00;97290.97;4935035;29;20091;-84
2022/08/16 02:52:50;;;;;;;0.00;0.00;;;;;;;17.22;100.00;97295.91;4935315;29;20047;-84
2022/08/16 02:55:18;;;;;;;0.00;0.00;;;;;;;17.18;100.00;97293.75;4936779;29;20082;-80
2022/08/16 02:57:45;;;;;;;0.00;0.00;;;;;;;17.19;100.00;97300.72;4927764;29;20044;-80
2022/08/16 03:00:16;;;;;;;0.00;0.00;;;;;;;17.22;100.00;97303.91;4930711;29;20036;-81
2022/08/16 03:02:44;;;;;;;0.00;0.00;;;;;;;17.07;100.00;97302.00;4931167;29;20493;-82
2022/08/16 03:05:15;;;;;;;0.00;0.00;;;;;;;17.04;100.00;97303.09;4917977;29;20060;-81
2022/08/16 03:07:44;;;;;;;0.00;0.00;;;;;;;16.95;100.00;97296.09;4935257;29;20051;-80
2022/08/16 03:10:12;;;;;;;0.00;0.00;;;;;;;16.93;100.00;97298.00;4926080;29;20048;-82
2022/08/16 03:12:48;;;;;;;0.00;0.00;;;;;;;16.99;100.00;97294.78;4935333;29;20048;-81
2022/08/16 03:15:18;;;;;;;0.00;0.00;;;;;;;16.96;100.00;97291.63;4918600;29;20040;-82
2022/08/16 03:17:46;;;;;;;0.00;0.00;;;;;;;16.86;100.00;97296.97;4936217;29;20047;-80
2022/08/16 03:20:16;;;;;;;0.00;0.00;;;;;;;16.83;100.00;97292.00;4929540;29;20048;-83
2022/08/16 03:22:45;;;;;;;0.00;0.00;;;;;;;16.85;100.00;97292.66;4930209;29;20044;-81
2022/08/16 03:25:16;;;;;;;0.00;0.00;;;;;;;16.88;100.00;97288.84;4934840;29;20131;-79
2022/08/16 03:27:53;;;;;;;0.00;0.00;;;;;;;16.86;100.00;97302.28;4926261;29;20050;-80
2022/08/16 03:30:26;;;;;;;0.00;0.00;;;;;;;16.86;100.00;97298.81;4918793;29;20040;-79
2022/08/16 03:32:57;;;;;;;0.00;0.00;;;;;;;16.91;100.00;97296.50;4929532;29;20139;-84
2022/08/16 03:35:32;;;;;;;0.00;0.00;;;;;;;16.99;100.00;97301.91;4917650;29;20509;-83
2022/08/16 03:38:02;;;;;;;0.00;0.00;;;;;;;17.04;100.00;97308.44;4918725;29;20032;-80
2022/08/16 03:40:33;;;;;;;0.00;0.00;;;;;;;17.10;100.00;97310.47;4931374;29;20045;-80
2022/08/16 03:43:02;;;;;;;0.00;0.00;;;;;;;17.12;100.00;97302.34;4914828;29;20131;-82
2022/08/16 03:45:30;;;;;;;0.00;0.00;;;;;;;17.06;100.00;97308.28;4921511;29;21114;-83
2022/08/16 03:47:57;;;;;;;0.00;0.00;;;;;;;17.02;100.00;97302.44;4924914;29;20050;-82
2022/08/16 03:50:25;;;;;;;0.00;0.00;;;;;;;16.94;100.00;97301.53;4933804;29;20044;-79
2022/08/16 03:52:55;;;;;;;0.00;0.00;;;;;;;16.97;100.00;97306.56;4933015;29;20055;-81
2022/08/16 03:55:22;;;;;;;0.00;0.00;;;;;;;16.99;100.00;97304.56;4928347;29;20358;-79
2022/08/16 03:57:52;;;;;;;0.00;0.00;;;;;;;17.06;100.00;97313.59;4916913;29;20490;-82
2022/08/16 04:00:26;;;;;;;0.00;0.00;;;;;;;17.12;100.00;97308.50;4918576;29;20043;-80
2022/08/16 04:02:55;;;;;;;0.00;0.00;;;;;;;17.07;100.00;97308.13;4924853;29;20147;-79
2022/08/16 04:05:23;;;;;;;0.00;0.00;;;;;;;17.05;100.00;97304.81;4923943;29;20058;-81
2022/08/16 04:07:51;;;;;;;0.00;0.00;;;;;;;17.06;100.00;97311.78;4933547;29;20040;-80
2022/08/16 04:10:21;;;;;;;0.00;0.00;;;;;;;17.12;100.00;97312.97;4914257;29;20397;-83
2022/08/16 04:12:48;;;;;;;0.00;0.00;;;;;;;17.21;100.00;97312.03;4929487;29;20054;-81
2022/08/16 04:15:17;;;;;;;0.00;0.00;;;;;;;17.18;100.00;97315.03;4935046;29;20449;-79
2022/08/16 04:18:05;;;;;;;0.00;0.00;;;;;;;17.13;100.00;97325.25;4934129;29;20055;-83
2022/08/16 04:20:32;;;;;;;0.00;0.00;;;;;;;17.19;100.00;97322.00;4934534;29;20058;-81
2022/08/16 04:23:01;;;;;;;0.00;0.00;;;;;;;17.27;100.00;97317.56;4924980;29;20044;-79
2022/08/16 04:25:31;;;;;;;0.00;0.00;;;;;;;17.29;100.00;97315.56;4932583;29;20109;-80
2022/08/16 04:28:00;;;;;;;0.00;0.00;;;;;;;17.32;100.00;97314.41;4934176;29;20039;-83
2022/08/16 04:30:28;;;;;;;0.00;0.00;;;;;;;17.42;100.00;97312.50;4934722;29;20050;-80
2022/08/16 04:32:55;;;;;;;0.00;0.00;;;;;;;17.59;100.00;97324.88;4933857;29;20386;-82
2022/08/16 04:35:25;;;;;;;0.00;0.00;;;;;;;17.77;100.00;97333.63;4934352;29;20040;-80
2022/08/16 04:37:53;;;;;;;0.00;0.00;;;;;;;17.99;100.00;97322.44;4933629;29;20550;-82
2022/08/16 04:40:26;;;;;;;0.00;0.00;;;;;;;18.10;100.00;97322.13;4934071;29;20052;-83
2022/08/16 04:43:00;;;;;;;0.00;0.00;;;;;;;18.14;100.00;97323.47;4924872;29;20048;-79
2022/08/16 04:45:30;;;;;;;0.00;0.00;;;;;;;18.26;100.00;97321.31;4927125;29;20325;-80
2022/08/16 04:47:58;;;;;;;0.00;0.00;;;;;;;18.42;100.00;97316.84;4913880;29;20063;-81
2022/08/16 04:50:32;;;;;;;0.00;0.00;;;;;;;18.53;100.00;97323.72;4912704;29;20052;-81
2022/08/16 04:53:12;;;;;;;0.00;0.00;;;;;;;18.55;100.00;97317.22;4913732;29;20047;-83
2022/08/16 04:55:44;;;;;;;0.00;0.00;;;;;;;18.67;100.00;97317.75;4913880;29;20041;-85
2022/08/16 04:58:14;;;;;;;0.00;0.00;;;;;;;18.83;100.00;97320.44;4913834;29;20044;-85
2022/08/16 05:00:42;;;;;;;0.00;0.00;;;;;;;18.99;100.00;97318.59;4916746;29;20796;-79
2022/08/16 05:03:13;;;;;;;0.00;0.00;;;;;;;19.12;100.00;97313.56;4909505;29;20063;-84
2022/08/16 05:05:47;;;;;;;;;;;;;;;19.28;100.00;97310.06;4934765;29;20144;-81
2022/08/16 05:08:18;;;;;;;0.00;0.00;;;;;;;19.31;100.00;97310.53;4921684;29;19969;-80
2022/08/16 05:10:51;;;;;;;0.00;0.00;;;;;;;19.40;100.00;97308.69;4915173;29;20520;-80
2022/08/16 05:13:20;;;;;;;0.00;0.00;;;;;;;19.50;100.00;97304.88;4913761;29;20083;-83
2022/08/16 05:15:48;;;;;;;0.00;0.00;;;;;;;19.67;100.00;97313.66;4913752;29;20410;-84
2022/08/16 05:18:17;;;;;;;0.00;0.00;;;;;;;19.87;100.00;97313.09;4913714;29;20044;-85
2022/08/16 05:20:51;;;;;;;0.00;0.00;;;;;;;20.09;100.00;97317.66;4913720;29;20549;-86
2022/08/16 05:23:18;;;;;;;0.00;0.00;;;;;;;20.25;100.00;97325.59;4898584;29;20460;-80
2022/08/16 05:25:46;;;;;;;0.00;0.00;;;;;;;20.42;100.00;97323.66;4913410;29;20040;-83
2022/08/16 05:28:14;;;;;;;0.00;0.00;;;;;;;20.55;100.00;97318.56;4915586;29;20043;-82
2022/08/16 05:30:50;;;;;;;0.00;0.00;;;;;;;20.69;100.00;97321.31;4915725;29;20047;-83
2022/08/16 05:33:22;;;;;;;0.00;0.00;;;;;;;20.88;100.00;97328.00;4921636;29;20481;-81
2022/08/16 05:35:50;;;;;;;0.00;0.00;;;;;;;21.05;100.00;97321.53;4913497;29;20076;-81
2022/08/16 05:38:26;;;;;;;0.00;0.00;;;;;;;21.12;100.00;97327.00;4914512;29;20047;-83
2022/08/16 05:40:56;;;;;;;0.00;0.00;;;;;;;21.12;100.00;97325.16;4913317;29;20048;-83
2022/08/16 05:43:24;;;;;;;0.00;0.00;;;;;;;21.14;100.00;97322.31;4913347;29;20115;-82
2022/08/16 05:45:54;;;;;;;0.00;0.00;;;;;;;21.21;100.00;97326.72;4915654;29;20051;-83
2022/08/16 05:48:24;;;;;;;0.00;0.00;;;;;;;21.35;100.00;97333.97;4929421;29;20083;-82
2022/08/16 05:51:03;;;;;;;0.00;0.00;;;;;;;21.48;100.00;97334.19;4926879;29;20044;-84
2022/08/16 05:53:32;;;;;;;0.00;0.00;;;;;;;21.58;100.00;97336.59;4924334;29;20112;-83
2022/08/16 05:56:10;;;;;;;0.00;0.00;;;;;;;21.75;100.00;97335.41;4920564;29;20044;-82
2022/08/16 05:58:41;;;;;;;0.00;0.00;;;;;;;21.89;100.00;97332.75;4923039;29;20040;-83
2022/08/16 06:01:13;;;;;;;0.00;0.00;;;;;;;22.07;100.00;97333.19;4914163;29;20043;-81
2022/08/16 06:03:44;;;;;;;0.00;0.00;;;;;;;22.22;100.00;97344.72;4918427;29;20047;-85
2022/08/16 06:06:31;;;;;;;0.00;0.00;;;;;;;22.45;100.00;97344.59;4910959;29;20040;-82
2022/08/16 06:09:01;;;;;;;0.00;0.00;;;;;;;22.64;100.00;97343.97;4912683;29;20048;-83
2022/08/16 06:11:28;;;;;;;0.00;0.00;;;;;;;22.91;100.00;97332.50;4915256;29;20072;-83
2022/08/16 06:13:59;;;;;;;0.00;0.00;;;;;;;23.06;100.00;97327.91;4914815;29;20416;-83
2022/08/16 06:16:37;;;;;;;0.00;0.00;;;;;;;23.16;100.00;97331.13;4911642;29;20552;-83
2022/08/16 06:19:04;;;;;;;0.00;0.00;;;;;;;23.36;100.00;97332.09;4911647;29;20044;-83
2022/08/16 06:21:34;;;;;;;0.00;0.00;;;;;;;23.56;100.00;97335.72;4927276;29;20044;-81
2022/08/16 06:24:04;;;;;;;0.00;0.00;;;;;;;23.68;100.00;97336.91;4922494;29;20135;-82
2022/08/16 06:26:34;;;;;;;0.00;0.00;;;;;;;23.78;100.00;97340.03;4922471;29;20099;-82
2022/08/16 06:29:02;;;;;;;0.00;0.00;;;;;;;23.82;100.00;97344.03;4917504;29;20075;-81
2022/08/16 06:31:40;;;;;;;0.00;0.00;;;;;;;23.87;99.65;97338.88;4932106;29;20055;-82
2022/08/16 06:34:08;;;;;;;0.00;0.00;;;;;;;24.04;99.14;97345.59;4922396;29;20056;-84
2022/08/16 06:36:36;;;;;;;0.00;0.00;;;;;;;24.19;99.13;97343.59;4923389;29;20509;-82
2022/08/16 06:39:20;;;;;;;0.00;0.00;;;;;;;24.23;97.68;97350.22;4934538;29;20056;-76
2022/08/16 06:42:00;;;;;;;0.00;0.00;;;;;;;24.19;98.17;97340.91;4940666;29;20549;-77
2022/08/16 06:44:57;;;;;;;0.00;0.00;;;;;;;24.33;98.43;97347.19;4911118;29;20146;-76
2022/08/16 06:47:41;;;;;;;0.00;0.00;;;;;;;24.61;97.70;97348.75;4919598;29;20062;-77
2022/08/16 06:50:10;;;;;;;0.00;0.00;;;;;;;24.89;96.91;97345.91;4935528;29;20122;-81
2022/08/16 06:52:45;;;;;;;0.00;0.00;;;;;;;25.10;93.94;97349.28;4929418;29;20553;-76
2022/08/16 06:55:15;;;;;;;0.00;0.00;;;;;;;25.17;90.65;97350.13;4918527;29;20044;-79
2022/08/16 06:57:49;;;;;;;0.00;0.00;;;;;;;25.24;89.22;97356.34;4913933;29;20051;-77
2022/08/16 07:00:16;;;;;;;0.00;0.00;;;;;;;25.51;88.38;97354.47;4919006;29;20044;-77
2022/08/16 07:02:55;;;;;;;0.00;0.00;;;;;;;25.64;87.99;97358.00;4912909;29;20119;-81
2022/08/16 07:05:23;;;;;;;0.00;0.00;;;;;;;25.56;87.46;97354.69;4922909;29;20057;-77
2022/08/16 07:08:04;;;;;;;0.00;0.00;;;;;;;25.42;85.84;97348.47;4908561;29;20097;-77
2022/08/16 07:10:32;;;;;;;0.00;0.00;;;;;;;25.48;84.12;97358.41;4914699;29;20051;-82
2022/08/16 07:13:00;;;;;;;0.00;0.00;;;;;;;25.62;83.10;97359.25;4915036;29;20122;-77
2022/08/16 07:15:27;;;;;;;0.00;0.00;;;;;;;25.69;82.52;97368.16;4916728;29;20396;-84
2022/08/16 07:17:58;;;;;;;0.00;0.00;;;;;;;25.86;83.04;97362.13;4926537;29;20095;-78
2022/08/16 07:20:27;;;;;;;0.00;0.00;;;;;;;26.13;82.81;97363.75;4922421;29;20044;-84
2022/08/16 07:22:56;;;;;;;0.00;0.00;;;;;;;26.25;83.86;97364.75;4930312;29;20493;-76
2022/08/16 07:25:28;;;;;;;;;;;;;;;26.45;84.34;97368.19;4925073;29;20051;-77
2022/08/16 07:27:56;;;;;;;0.00;0.00;;;;;;;26.26;84.40;97366.41;4933884;29;19926;-77
2022/08/16 07:30:29;;;;;;;0.00;0.00;;;;;;;26.09;84.59;97370.56;4933914;29;20633;-78
2022/08/16 07:33:00;;;;;;;0.00;0.00;;;;;;;26.12;85.57;97372.88;4919747;29;20059;-84
2022/08/16 07:35:28;;;;;;;0.00;0.00;;;;;;;26.11;85.10;97370.38;4915996;29;20040;-76
2022/08/16 07:37:55;;;;;;;0.00;0.00;;;;;;;26.03;85.05;97371.44;4914905;29;20520;-77
2022/08/16 07:40:40;;;;;;;0.00;0.00;;;;;;;25.96;85.34;97370.63;4929383;29;20329;-84
2022/08/16 07:43:07;;;;;;;0.00;0.00;;;;;;;25.70;85.51;97377.91;4914747;29;20075;-80
2022/08/16 07:45:35;;;;;;;0.00;0.00;;;;;;;25.47;86.60;97378.28;4899946;29;20481;-82
2022/08/16 07:48:05;;;;;;;0.00;0.00;;;;;;;25.49;87.85;97378.94;4914843;29;20040;-79
2022/08/16 07:50:34;;;;;;;0.00;0.00;;;;;;;25.64;87.13;97366.09;4915772;29;20048;-81
2022/08/16 07:53:02;;;;;;;0.00;0.00;;;;;;;25.82;87.18;97360.06;4914565;29;20051;-82
2022/08/16 07:55:31;;;;;;;0.00;0.00;;;;;;;25.85;86.92;97371.25;4916123;29;20044;-76
2022/08/16 07:57:59;;;;;;;0.00;0.00;;;;;;;25.98;86.16;97370.41;4935676;29;20044;-76
2022/08/16 08:00:26;;;;;;;0.00;0.00;;;;;;;26.03;85.86;97367.91;4935540;29;20039;-77
2022/08/16 08:02:55;;;;;;;0.00;0.00;;;;;;;26.00;86.28;97374.53;4933646;29;20032;-77
2022/08/16 08:05:26;;;;;;;0.00;0.00;;;;;;;25.95;85.38;97371.63;4932105;29;20083;-77
2022/08/16 08:07:55;;;;;;;0.00;0.00;;;;;;;25.99;84.70;97377.44;4932449;29;20032;-83
2022/08/16 08:10:24;;;;;;;0.00;0.00;;;;;;;25.95;85.42;97373.53;4932872;29;20485;-77
2022/08/16 08:12:53;;;;;;;0.00;0.00;;;;;;;26.20;85.41;97379.94;4933310;29;20047;-82
2022/08/16 08:15:23;;;;;;;0.00;0.00;;;;;;;26.15;83.43;97380.56;4933333;29;20141;-78
2022/08/16 08:17:51;;;;;;;0.00;0.00;;;;;;;26.19;83.67;97379.09;4933524;29;20401;-83
2022/08/16 08:20:27;;;;;;;0.00;0.00;;;;;;;26.35;83.06;97378.59;4935077;29;20043;-77
2022/08/16 08:22:57;;;;;;;0.00;0.00;;;;;;;26.27;82.91;97386.94;4934211;29;20047;-77
2022/08/16 08:25:26;;;;;;;0.00;0.00;;;;;;;26.29;83.35;97390.25;4934321;29;20516;-83
2022/08/16 08:27:54;;;;;;;0.00;0.00;;;;;;;26.34;83.80;97390.44;4934643;29;20095;-76
2022/08/16 08:30:22;;;;;;;0.00;0.00;;;;;;;26.24;82.86;97395.44;4934015;29;20043;-77
2022/08/16 08:32:52;;;;;;;0.00;0.00;;;;;;;26.30;82.63;97388.38;4923509;29;20040;-77
2022/08/16 08:35:20;;;;;;;0.00;0.00;;;;;;;26.29;80.73;97389.44;4925792;29;20498;-77
2022/08/16 08:37:49;;;;;;;0.00;0.00;;;;;;;26.41;80.94;97385.84;4914269;29;20032;-84
2022/08/16 08:40:17;;;;;;;0.00;0.00;;;;;;;26.36;80.37;97393.75;4929271;29;20521;-81
2022/08/16 08:42:45;;;;;;;0.00;0.00;;;;;;;26.30;80.86;97397.31;4914376;29;20383;-77
2022/08/16 08:45:14;;;;;;;0.00;0.00;;;;;;;26.23;79.71;97401.91;4914415;29;20050;-76
2022/08/16 08:47:45;;;;;;;0.00;0.00;;;;;;;26.25;79.87;97402.53;4913381;29;20047;-82
2022/08/16 08:50:15;;;;;;;0.00;0.00;;;;;;;26.25;79.11;97401.69;4914356;29;20482;-77
2022/08/16 08:52:44;;;;;;;0.00;0.00;;;;;;;26.28;78.44;97404.78;4914968;29;20054;-81
2022/08/16 08:55:15;;;;;;;0.00;0.00;;;;;;;26.30;79.00;97402.69;4913477;29;20115;-80
2022/08/16 08:57:46;;;;;;;0.00;0.00;;;;;;;26.39;79.70;97395.22;4927752;29;20071;-77
2022/08/16 09:00:39;;;;;;;0.00;0.00;;;;;;;26.41;78.57;97399.34;4913605;29;20055;-77
2022/08/16 09:03:07;;;;;;;0.00;0.00;;;;;;;26.52;79.37;97406.78;4916126;29;20135;-81
2022/08/16 09:05:38;;;;;;;0.00;0.00;;;;;;;26.46;79.31;97401.41;4916286;29;20048;-77
2022/08/16 09:08:08;;;;;;;0.00;0.00;;;;;;;26.61;78.81;97397.38;4922970;29;20071;-76
2022/08/16 09:11:07;;;;;;;0.00;0.00;;;;;;;26.65;76.76;97395.91;4913870;29;20040;-76
2022/08/16 09:13:35;;;;;;;0.00;0.00;;;;;;;26.61;77.50;97401.97;4914953;29;20060;-76
2022/08/16 09:16:04;;;;;;;0.00;0.00;;;;;;;26.69;75.96;97409.81;4913833;29;20058;-84
2022/08/16 09:18:32;;;;;;;0.00;0.00;;;;;;;26.64;75.97;97405.06;4929023;29;20070;-77
2022/08/16 09:21:00;;;;;;;0.00;0.00;;;;;;;26.73;74.91;97412.94;4913426;29;20800;-82
2022/08/16 09:23:30;;;;;;;0.00;0.00;;;;;;;26.81;75.04;97405.44;4916265;29;20099;-76
2022/08/16 09:25:58;;;;;;;0.00;0.00;;;;;;;26.82;73.91;97406.28;4912165;29;20079;-85
2022/08/16 09:28:27;;;;;;;0.00;0.00;;;;;;;26.82;72.92;97406.28;4914691;29;20076;-83
2022/08/16 09:31:03;;;;;;;0.00;0.00;;;;;;;26.82;72.49;97406.28;4913291;29;20044;-80
2022/08/16 09:33:31;;;;;;;0.00;0.00;;;;;;;26.94;72.62;97408.06;4913874;29;20040;-76
2022/08/16 09:35:58;;;;;;;0.00;0.00;;;;;;;27.04;72.53;97399.50;4914272;29;20063;-80
2022/08/16 09:38:26;;;;;;;0.00;0.00;;;;;;;26.97;71.78;97404.91;4914456;29;20454;-77
2022/08/16 09:40:56;;;;;;;0.00;0.00;;;;;;;27.00;72.24;97404.50;4913607;29;20044;-84
2022/08/16 09:43:24;;;;;;;0.00;0.00;;;;;;;27.12;72.63;97404.63;4914875;29;20048;-76
2022/08/16 09:45:53;;;;;;;0.00;0.00;;;;;;;27.20;73.14;97407.06;4915749;29;20044;-77
2022/08/16 09:48:20;;;;;;;0.00;0.00;;;;;;;27.24;73.01;97401.03;4911423;29;20054;-81
2022/08/16 09:50:48;;;;;;;0.00;0.00;;;;;;;27.25;73.72;97408.06;4912040;29;20044;-82
2022/08/16 09:53:19;;;;;;;0.00;0.00;;;;;;;27.42;72.74;97409.25;4914399;29;20044;-85
2022/08/16 09:55:51;;;;;;;0.00;0.00;;;;;;;27.52;72.24;97404.16;4912952;29;20047;-83
2022/08/16 09:58:19;;;;;;;0.00;0.00;;;;;;;27.42;71.07;97401.16;4914445;29;20508;-80
2022/08/16 10:00:47;;;;;;;0.00;0.00;;;;;;;27.24;71.52;97408.28;4927499;29;20379;-81
2022/08/16 10:03:16;;;;;;;0.00;0.00;;;;;;;27.27;72.56;97406.00;4916907;29;20040;-80
2022/08/16 10:05:44;;;;;;;0.00;0.00;;;;;;;27.32;71.48;97408.06;4916871;29;20059;-91
2022/08/16 10:08:12;;;;;;;0.00;0.00;;;;;;;27.39;71.87;97406.13;4917585;29;20397;-80
2022/08/16 10:10:41;;;;;;;0.00;0.00;;;;;;;27.40;72.67;97405.09;4917116;29;20502;-91
2022/08/16 10:13:13;;;;;;;0.00;0.00;;;;;;;27.47;70.35;97416.66;4918421;29;20040;-81
2022/08/16 10:15:42;;;;;;;0.00;0.00;;;;;;;27.54;69.01;97428.25;4917367;29;20055;-91
2022/08/16 10:18:12;;;;;;;0.00;0.00;;;;;;;27.67;67.80;97422.78;4919541;29;20036;-88
2022/08/16 10:20:43;;;;;;;0.00;0.00;;;;;;;27.72;67.99;97421.06;4920150;29;20040;-84
2022/08/16 10:23:14;;;;;;;0.00;0.00;;;;;;;27.97;67.98;97421.91;4924080;29;20505;-90
2022/08/16 10:25:43;;;;;;;0.00;0.00;;;;;;;28.16;65.39;97425.47;4917378;29;20091;-86
2022/08/16 10:28:12;;;;;;;0.00;0.00;;;;;;;28.18;62.00;97424.19;4917837;29;20514;-90
2022/08/16 10:30:41;;;;;;;0.00;0.00;;;;;;;28.31;61.34;97421.34;4935374;29;20473;-90
2022/08/16 10:33:08;;;;;;;0.00;0.00;;;;;;;28.48;61.45;97425.13;4937360;29;20501;-89
2022/08/16 10:35:36;;;;;;;0.00;0.00;;;;;;;28.45;59.08;97432.88;4920680;29;20044;-82
2022/08/16 10:38:05;;;;;;;0.00;0.00;;;;;;;28.55;59.90;97414.25;4917686;29;20052;-80
2022/08/16 10:40:32;;;;;;;0.00;0.00;;;;;;;28.58;58.71;97413.78;4916994;29;20054;-88
2022/08/16 10:43:00;;;;;;;0.00;0.00;;;;;;;28.50;60.28;97411.38;4917727;29;20525;-90
2022/08/16 10:45:33;;;;;;;0.00;0.00;;;;;;;28.60;59.47;97411.69;4918283;29;20040;-80
2022/08/16 10:48:01;;;;;;;0.00;0.00;;;;;;;28.72;59.50;97409.84;4918390;29;20413;-80
2022/08/16 10:50:28;;;;;;;0.00;0.00;;;;;;;28.80;58.44;97407.66;4919695;29;20032;-81
2022/08/16 10:52:56;;;;;;;0.00;0.00;;;;;;;28.81;56.60;97408.50;4914788;29;20517;-79
2022/08/16 10:55:25;;;;;;;0.00;0.00;;;;;;;28.96;56.86;97406.25;4916617;29;20040;-79
2022/08/16 10:57:56;;;;;;;0.00;0.00;;;;;;;28.83;56.36;97411.78;4918705;29;20051;-80
2022/08/16 11:00:23;;;;;;;0.00;0.00;;;;;;;28.93;55.79;97399.38;4921608;29;20048;-79
2022/08/16 11:02:52;;;;;;;0.00;0.00;;;;;;;29.02;56.03;97410.72;4932763;29;20040;-80
2022/08/16 11:05:19;;;;;;;0.00;0.00;;;;;;;28.92;55.39;97405.81;4928551;29;20052;-90
2022/08/16 11:07:49;;;;;;;0.00;0.00;;;;;;;28.92;56.30;97399.59;4927338;29;20052;-80
2022/08/16 11:10:20;;;;;;;0.00;0.00;;;;;;;28.96;56.18;97396.22;4919548;29;20091;-80
2022/08/16 11:12:49;;;;;;;0.00;0.00;;;;;;;28.98;56.44;97396.00;4917571;29;20040;-82
2022/08/16 11:15:17;;;;;;;0.00;0.00;;;;;;;29.09;55.92;97397.91;4918507;29;21730;-91
2022/08/16 11:17:46;;;;;;;0.00;0.00;;;;;;;29.02;55.14;97398.03;4915523;29;20051;-82
2022/08/16 11:20:16;;;;;;;0.00;0.00;;;;;;;28.96;53.92;97395.41;4912747;29;20401;-81
2022/08/16 11:22:44;;;;;;;0.00;0.00;;;;;;;29.02;54.89;97392.59;4916859;29;20398;-81
2022/08/16 11:25:13;;;;;;;0.00;0.00;;;;;;;29.01;55.26;97382.84;4915234;29;20040;-92
2022/08/16 11:27:41;;;;;;;0.00;0.00;;;;;;;28.89;55.89;97389.22;4914901;29;20040;-89
2022/08/16 11:30:13;;;;;;;0.00;0.00;;;;;;;28.62;56.66;97385.22;4920624;29;20489;-90
2022/08/16 11:32:43;;;;;;;0.00;0.00;;;;;;;28.49;57.54;97390.78;4934883;29;20044;-90
2022/08/16 11:35:13;;;;;;;0.00;0.00;;;;;;;28.60;57.65;97398.97;4931609;29;20471;-85
2022/08/16 11:37:42;;;;;;;0.00;0.00;;;;;;;28.58;59.98;97392.94;4918726;29;20391;-89
2022/08/16 11:40:10;;;;;;;0.00;0.00;;;;;;;28.46;59.11;97397.47;4922129;29;20059;-91
2022/08/16 11:42:38;;;;;;;0.00;0.00;;;;;;;28.39;58.08;97387.72;4936855;29;20107;-92